Time;durP1;ratioP1;P1;durP2;ratioP2;P2;SDS_P1;SDS_P2;PMS_P1;PMS_P2;Temp;Humidity;BMP_temperature;BMP_pressure;BME280_temperature;BME280_humidity;BME280_pressure;Samples;Min_cycle;Max_cycle;Signal;HPM_P1;HPM_P2
2022/04/08 00:02:07;;;;;;;;;;;20.50;42.00;;;;;;5062210;28;19948;-61
2022/04/08 00:04:33;;;;;;;;;;;20.50;42.00;;;;;;5058582;28;19919;-60
2022/04/08 00:06:59;;;;;;;;;;;20.50;42.10;;;;;;5061393;28;19916;-61
2022/04/08 00:09:24;;;;;;;;;;;20.50;42.00;;;;;;5061278;28;20010;-61
2022/04/08 00:11:50;;;;;;;;;;;20.40;42.00;;;;;;5057704;28;19916;-61
2022/04/08 00:14:18;;;;;;;;;;;20.40;42.00;;;;;;5062882;28;20334;-61
2022/04/08 00:16:44;;;;;;;;;;;20.40;42.00;;;;;;5061281;28;20365;-60
2022/04/08 00:19:10;;;;;;;;;;;20.40;42.00;;;;;;5045023;28;19921;-61
2022/04/08 00:21:35;;;;;;;;;;;20.40;42.00;;;;;;4997704;28;1740485;-60
2022/04/08 00:24:00;;;;;;;;;;;20.40;42.10;;;;;;5056975;28;19917;-61
2022/04/08 00:26:26;;;;;;;;;;;20.40;42.10;;;;;;5069358;28;19920;-61
2022/04/08 00:28:51;;;;;;;;;;;20.40;42.10;;;;;;5062189;28;19913;-61
2022/04/08 00:31:17;;;;;;;;;;;20.40;42.10;;;;;;5064309;28;19923;-60
2022/04/08 00:33:42;;;;;;;;;;;20.30;42.10;;;;;;5060011;28;19919;-61
2022/04/08 00:36:08;;;;;;;;;;;20.30;42.10;;;;;;5064170;28;19920;-60
2022/04/08 00:38:33;;;;;;;;;;;20.30;42.20;;;;;;5063993;28;19920;-61
2022/04/08 00:40:59;;;;;;;;;;;20.30;42.10;;;;;;5064615;28;20020;-61
2022/04/08 00:43:40;;;;;;;;;;;20.30;42.10;;;;;;5065523;28;19962;-60
2022/04/08 00:46:06;;;;;;;;;;;20.30;42.20;;;;;;5045710;28;20123;-61
2022/04/08 00:48:31;;;;;;;;;;;20.20;42.20;;;;;;5063522;28;19959;-60
2022/04/08 00:50:57;;;;;;;;;;;20.20;42.20;;;;;;5060894;28;19998;-61
2022/04/08 00:53:23;;;;;;;;;;;20.20;42.20;;;;;;5040389;28;19928;-61
2022/04/08 00:55:48;;;;;;;;;;;20.20;42.20;;;;;;5033804;28;19935;-61
2022/04/08 00:58:13;;;;;;;;;;;20.20;42.30;;;;;;5045287;28;19912;-61
2022/04/08 01:00:39;;;;;;;;;;;20.10;42.30;;;;;;5061367;28;19920;-61
2022/04/08 01:03:05;;;;;;;;;;;20.20;42.30;;;;;;5043434;28;20391;-61
2022/04/08 01:05:31;;;;;;;;;;;20.10;42.30;;;;;;5059416;28;20308;-60
2022/04/08 01:07:56;;;;;;;;;;;20.10;42.30;;;;;;5063486;28;19988;-60
2022/04/08 01:10:22;;;;;;;;;;;20.10;42.20;;;;;;5042034;28;19916;-60
2022/04/08 01:12:49;;;;;;;;;;;20.20;42.20;;;;;;5048070;28;19931;-61
2022/04/08 01:15:18;;;;;;;;;;;20.20;42.20;;;;;;5042334;28;19916;-61
2022/04/08 01:17:43;;;;;;;;;;;20.10;42.30;;;;;;5055256;28;19919;-61
2022/04/08 01:20:09;;;;;;;;;;;20.10;42.40;;;;;;5061872;28;20074;-61
2022/04/08 01:22:35;;;;;;;;;;;20.10;42.50;;;;;;5060523;28;19924;-61
2022/04/08 01:25:04;;;;;;;;;;;20.20;42.50;;;;;;5040566;28;19919;-61
2022/04/08 01:27:29;;;;;;;;;;;20.30;42.40;;;;;;5060744;28;20348;-61
2022/04/08 01:29:55;;;;;;;;;;;20.50;42.20;;;;;;5043227;28;19981;-61
2022/04/08 01:32:20;;;;;;;;;;;20.80;41.60;;;;;;5057241;28;20011;-61
2022/04/08 01:34:49;;;;;;;;;;;21.20;41.10;;;;;;5033168;28;20504;-61
2022/04/08 01:37:14;;;;;;;;;;;21.50;40.50;;;;;;5057467;28;19920;-61
2022/04/08 01:39:41;;;;;;;;;;;21.80;40.00;;;;;;5045533;28;19920;-61
2022/04/08 01:42:07;;;;;;;;;;;22.10;39.50;;;;;;5061391;28;19913;-61
2022/04/08 01:44:32;;;;;;;;;;;22.30;39.30;;;;;;5056720;28;20281;-61
2022/04/08 01:46:58;;;;;;;;;;;22.30;39.00;;;;;;5070654;28;19912;-61
2022/04/08 01:49:23;;;;;;;;;;;22.30;38.90;;;;;;5055915;28;20003;-61
2022/04/08 01:51:49;;;;;;;;;;;22.30;39.00;;;;;;5061407;28;20058;-61
2022/04/08 01:54:14;;;;;;;;;;;22.20;39.00;;;;;;5056816;28;19932;-61
2022/04/08 01:56:40;;;;;;;;;;;22.20;39.20;;;;;;5060388;28;19928;-61
2022/04/08 01:59:05;;;;;;;;;;;22.10;39.10;;;;;;5056954;28;19913;-58
2022/04/08 02:01:30;;;;;;;;;;;22.10;39.10;;;;;;5047118;28;20066;-59
2022/04/08 02:03:56;;;;;;;;;;;22.10;39.10;;;;;;5052538;28;19967;-59
2022/04/08 02:06:21;;;;;;;;;;;22.10;39.10;;;;;;5052948;28;20265;-59
2022/04/08 02:08:49;;;;;;;;;;;22.10;39.20;;;;;;5070976;28;19954;-58
2022/04/08 02:11:15;;;;;;;;;;;22.10;39.20;;;;;;5053381;28;19931;-61
2022/04/08 02:13:41;;;;;;;;;;;22.10;39.30;;;;;;5071645;28;20017;-61
2022/04/08 02:16:06;;;;;;;;;;;22.00;39.20;;;;;;5070508;28;20000;-61
2022/04/08 02:18:31;;;;;;;;;;;22.00;39.40;;;;;;5071234;28;19920;-61
2022/04/08 02:20:57;;;;;;;;;;;22.00;39.40;;;;;;5071669;28;19938;-61
2022/04/08 02:23:22;;;;;;;;;;;21.90;39.30;;;;;;5071293;28;19924;-61
2022/04/08 02:25:48;;;;;;;;;;;21.90;39.30;;;;;;5071440;28;19954;-61
2022/04/08 02:28:13;;;;;;;;;;;21.80;39.40;;;;;;5071691;28;19953;-58
2022/04/08 02:30:39;;;;;;;;;;;21.70;39.30;;;;;;5048448;28;19916;-61
2022/04/08 02:33:04;;;;;;;;;;;21.70;39.50;;;;;;5051715;28;19948;-61
2022/04/08 02:35:32;;;;;;;;;;;21.70;39.50;;;;;;5069824;28;19912;-61
2022/04/08 02:37:58;;;;;;;;;;;21.60;39.10;;;;;;5071486;28;19935;-61
2022/04/08 02:40:23;;;;;;;;;;;21.60;39.50;;;;;;5070678;28;19909;-59
2022/04/08 02:42:49;;;;;;;;;;;21.60;39.60;;;;;;5071496;28;19913;-58
2022/04/08 02:45:14;;;;;;;;;;;21.50;39.70;;;;;;5071323;28;20288;-58
2022/04/08 02:47:43;;;;;;;;;;;21.40;39.80;;;;;;5047177;28;19998;-61
2022/04/08 02:50:09;;;;;;;;;;;21.40;39.90;;;;;;5063099;28;20323;-60
2022/04/08 02:52:34;;;;;;;;;;;21.30;40.00;;;;;;5048295;28;19912;-61
2022/04/08 02:55:00;;;;;;;;;;;21.30;40.00;;;;;;5031036;28;19977;-61
2022/04/08 02:57:25;;;;;;;;;;;21.20;40.00;;;;;;5065597;28;19915;-61
2022/04/08 02:59:53;;;;;;;;;;;21.10;40.40;;;;;;5067628;28;19959;-61
2022/04/08 03:02:21;;;;;;;;;;;21.10;40.60;;;;;;5059661;28;19913;-61
2022/04/08 03:04:46;;;;;;;;;;;21.00;40.70;;;;;;5059736;28;19909;-61
2022/04/08 03:07:12;;;;;;;;;;;21.00;40.80;;;;;;5056747;28;19912;-61
2022/04/08 03:09:37;;;;;;;;;;;20.90;40.80;;;;;;5059975;28;19909;-61
2022/04/08 03:12:03;;;;;;;;;;;21.00;40.90;;;;;;5056415;28;19927;-62
2022/04/08 03:14:29;;;;;;;;;;;21.00;40.90;;;;;;5024985;28;19975;-61
2022/04/08 03:16:54;;;;;;;;;;;21.00;40.80;;;;;;5049991;28;20334;-61
2022/04/08 03:19:19;;;;;;;;;;;21.10;40.80;;;;;;5064385;28;20374;-61
2022/04/08 03:21:45;;;;;;;;;;;21.10;40.60;;;;;;5046303;28;20349;-61
2022/04/08 03:24:12;;;;;;;;;;;21.10;40.60;;;;;;5061389;28;19924;-61
2022/04/08 03:26:37;;;;;;;;;;;21.10;40.60;;;;;;5062676;28;20127;-61
2022/04/08 03:29:03;;;;;;;;;;;21.00;40.60;;;;;;5067324;28;20007;-61
2022/04/08 03:31:29;;;;;;;;;;;21.00;40.70;;;;;;5065655;28;19917;-61
2022/04/08 03:33:54;;;;;;;;;;;21.00;40.60;;;;;;5045844;28;20679;-61
2022/04/08 03:36:19;;;;;;;;;;;21.00;40.40;;;;;;5063128;28;19921;-61
2022/04/08 03:38:45;;;;;;;;;;;21.10;40.20;;;;;;5061467;28;19927;-61
2022/04/08 03:41:10;;;;;;;;;;;21.10;40.20;;;;;;5062847;28;19994;-61
2022/04/08 03:43:36;;;;;;;;;;;21.10;40.00;;;;;;5062296;28;19920;-61
2022/04/08 03:46:01;;;;;;;;;;;21.10;39.90;;;;;;5063545;28;19938;-61
2022/04/08 03:48:27;;;;;;;;;;;21.10;39.90;;;;;;5060940;28;19909;-61
2022/04/08 03:50:53;;;;;;;;;;;21.20;40.00;;;;;;5048733;28;19960;-61
2022/04/08 03:53:19;;;;;;;;;;;21.20;40.00;;;;;;5061392;28;19964;-61
2022/04/08 03:55:45;;;;;;;;;;;21.20;39.80;;;;;;5058497;28;20368;-61
2022/04/08 03:58:10;;;;;;;;;;;21.20;39.80;;;;;;5061956;28;19912;-61
2022/04/08 04:00:36;;;;;;;;;;;21.30;39.70;;;;;;5062076;28;19909;-61
2022/04/08 04:03:03;;;;;;;;;;;21.30;39.80;;;;;;5061989;28;19971;-61
2022/04/08 04:05:29;;;;;;;;;;;21.20;40.00;;;;;;5063837;28;19920;-64
2022/04/08 04:07:58;;;;;;;;;;;21.20;40.00;;;;;;5062466;28;20265;-61
2022/04/08 04:10:23;;;;;;;;;;;21.20;40.00;;;;;;5049744;28;19983;-61
2022/04/08 04:12:49;;;;;;;;;;;21.10;39.90;;;;;;5049783;28;19959;-61
2022/04/08 04:15:15;;;;;;;;;;;21.10;40.00;;;;;;5059832;28;19924;-61
2022/04/08 04:17:41;;;;;;;;;;;21.00;40.10;;;;;;5060546;28;19909;-61
2022/04/08 04:20:06;;;;;;;;;;;21.10;40.10;;;;;;5065196;28;20631;-61
2022/04/08 04:22:32;;;;;;;;;;;21.10;40.10;;;;;;5061876;28;19973;-61
2022/04/08 04:24:57;;;;;;;;;;;21.10;40.10;;;;;;5056030;28;20297;-61
2022/04/08 04:27:23;;;;;;;;;;;21.10;40.10;;;;;;5060300;28;19942;-61
2022/04/08 04:29:48;;;;;;;;;;;21.10;40.10;;;;;;5062484;28;19920;-61
2022/04/08 04:32:14;;;;;;;;;;;21.10;40.00;;;;;;5063173;28;19913;-60
2022/04/08 04:34:39;;;;;;;;;;;21.10;40.00;;;;;;5061998;28;19921;-61
2022/04/08 04:37:05;;;;;;;;;;;21.10;39.90;;;;;;5045706;28;19924;-61
2022/04/08 04:39:30;;;;;;;;;;;21.20;40.00;;;;;;5060548;28;19958;-61
2022/04/08 04:41:56;;;;;;;;;;;21.20;39.90;;;;;;5064315;28;19962;-58
2022/04/08 04:44:21;;;;;;;;;;;21.20;39.80;;;;;;5062271;28;20379;-61
2022/04/08 04:46:47;;;;;;;;;;;21.20;39.80;;;;;;5040686;28;20372;-61
2022/04/08 04:49:13;;;;;;;;;;;21.20;39.60;;;;;;5050643;28;20311;-60
2022/04/08 04:51:39;;;;;;;;;;;21.20;39.60;;;;;;5047520;28;25330;-58
2022/04/08 04:54:04;;;;;;;;;;;21.20;39.50;;;;;;5060090;28;19924;-58
2022/04/08 04:56:29;;;;;;;;;;;21.10;39.40;;;;;;5057663;28;20361;-58
2022/04/08 04:58:55;;;;;;;;;;;21.20;39.30;;;;;;5063671;28;19920;-61
2022/04/08 05:01:20;;;;;;;;;;;21.20;39.30;;;;;;5059859;28;19935;-58
2022/04/08 05:03:46;;;;;;;;;;;21.10;39.30;;;;;;5061952;28;19987;-58
2022/04/08 05:06:12;;;;;;;;;;;21.10;39.30;;;;;;5043036;28;19913;-61
2022/04/08 05:08:37;;;;;;;;;;;21.10;39.30;;;;;;5050885;28;19921;-60
2022/04/08 05:11:03;;;;;;;;;;;21.10;39.30;;;;;;5061835;28;20007;-60
2022/04/08 05:13:28;;;;;;;;;;;21.10;39.30;;;;;;5059359;28;19912;-58
2022/04/08 05:15:54;;;;;;;;;;;21.10;39.40;;;;;;5063489;28;20008;-58
2022/04/08 05:18:19;;;;;;;;;;;21.10;39.50;;;;;;5056861;28;19923;-61
2022/04/08 05:20:45;;;;;;;;;;;21.00;39.30;;;;;;5061832;28;20003;-58
2022/04/08 05:23:10;;;;;;;;;;;21.00;39.50;;;;;;5059487;28;19967;-58
2022/04/08 05:25:36;;;;;;;;;;;21.00;39.40;;;;;;5061605;28;20352;-59
2022/04/08 05:28:01;;;;;;;;;;;21.00;39.50;;;;;;5042141;28;20355;-59
2022/04/08 05:30:27;;;;;;;;;;;21.00;39.60;;;;;;5061053;28;20323;-59
2022/04/08 05:32:54;;;;;;;;;;;21.00;39.70;;;;;;5062402;28;20341;-58
2022/04/08 05:35:19;;;;;;;;;;;21.00;39.60;;;;;;5056248;28;19970;-58
2022/04/08 05:37:45;;;;;;;;;;;21.00;39.60;;;;;;5061444;28;20333;-61
2022/04/08 05:40:15;;;;;;;;;;;20.90;39.50;;;;;;5046381;28;19944;-59
2022/04/08 05:42:42;;;;;;;;;;;20.90;39.40;;;;;;5046314;28;20473;-60
2022/04/08 05:45:08;;;;;;;;;;;20.90;39.50;;;;;;5041936;28;19920;-61
2022/04/08 05:47:34;;;;;;;;;;;21.00;39.60;;;;;;5061340;28;19917;-59
2022/04/08 05:50:00;;;;;;;;;;;21.00;39.50;;;;;;5042533;28;19928;-59
2022/04/08 05:52:25;;;;;;;;;;;21.00;39.40;;;;;;5058325;28;20293;-58
2022/04/08 05:54:50;;;;;;;;;;;21.00;39.40;;;;;;5061794;28;19958;-59
2022/04/08 05:57:22;;;;;;;;;;;21.00;39.30;;;;;;5058156;28;19912;-60
2022/04/08 05:59:48;;;;;;;;;;;21.00;39.30;;;;;;5058329;28;20421;-61
2022/04/08 06:02:14;;;;;;;;;;;21.00;39.30;;;;;;5055108;28;19924;-61
2022/04/08 06:04:39;;;;;;;;;;;21.00;39.30;;;;;;5060526;28;20371;-61
2022/04/08 06:07:04;;;;;;;;;;;21.00;39.30;;;;;;5044397;28;20292;-60
2022/04/08 06:09:30;;;;;;;;;;;21.00;39.20;;;;;;5061671;28;20019;-61
2022/04/08 06:11:55;;;;;;;;;;;21.00;39.20;;;;;;5049410;28;19920;-61
2022/04/08 06:14:21;;;;;;;;;;;21.10;39.20;;;;;;5047277;28;19913;-61
2022/04/08 06:16:46;;;;;;;;;;;21.10;39.30;;;;;;5061077;28;19973;-62
2022/04/08 06:19:12;;;;;;;;;;;21.10;39.30;;;;;;5045667;28;19977;-60
2022/04/08 06:21:37;;;;;;;;;;;21.10;39.30;;;;;;5062656;28;19999;-61
2022/04/08 06:24:03;;;;;;;;;;;21.00;39.20;;;;;;5055512;28;19920;-61
2022/04/08 06:26:28;;;;;;;;;;;21.00;39.30;;;;;;5061610;28;19919;-61
2022/04/08 06:28:54;;;;;;;;;;;21.00;39.40;;;;;;5047487;28;20010;-61
2022/04/08 06:31:19;;;;;;;;;;;21.00;39.30;;;;;;5054940;28;19925;-61
2022/04/08 06:33:44;;;;;;;;;;;20.90;39.20;;;;;;5081552;28;19923;-61
2022/04/08 06:36:10;;;;;;;;;;;20.90;39.40;;;;;;5082519;28;19970;-61
2022/04/08 06:38:35;;;;;;;;;;;20.90;39.40;;;;;;5070862;28;19909;-61
2022/04/08 06:41:01;;;;;;;;;;;20.90;39.40;;;;;;5068030;28;20390;-61
2022/04/08 06:43:26;;;;;;;;;;;20.90;39.40;;;;;;5063017;28;19916;-62
2022/04/08 06:45:52;;;;;;;;;;;20.90;39.60;;;;;;5059599;28;20350;-62
2022/04/08 06:48:17;;;;;;;;;;;21.20;39.40;;;;;;5049961;28;20328;-62
2022/04/08 06:50:43;;;;;;;;;;;21.60;38.80;;;;;;5054049;28;19913;-60
2022/04/08 06:53:08;;;;;;;;;;;21.90;38.20;;;;;;5066590;28;19940;-59
2022/04/08 06:55:33;;;;;;;;;;;22.20;37.70;;;;;;5036650;28;19913;-60
2022/04/08 06:57:59;;;;;;;;;;;22.50;37.30;;;;;;5051407;28;19917;-59
2022/04/08 07:00:25;;;;;;;;;;;22.70;36.90;;;;;;5051789;28;19917;-59
2022/04/08 07:02:50;;;;;;;;;;;22.90;36.60;;;;;;5072677;28;19916;-59
2022/04/08 07:05:16;;;;;;;;;;;23.10;36.30;;;;;;5065158;28;19956;-60
2022/04/08 07:07:45;;;;;;;;;;;23.30;36.20;;;;;;5083472;28;19915;-61
2022/04/08 07:10:10;;;;;;;;;;;23.40;36.30;;;;;;5074778;28;20360;-62
2022/04/08 07:12:36;;;;;;;;;;;23.50;36.20;;;;;;5074540;28;19919;-59
2022/04/08 07:15:01;;;;;;;;;;;23.50;35.90;;;;;;5086177;28;19912;-59
2022/04/08 07:17:27;;;;;;;;;;;23.60;35.90;;;;;;5075242;28;19916;-60
2022/04/08 07:19:53;;;;;;;;;;;23.70;35.80;;;;;;5078896;28;19917;-59
2022/04/08 07:22:18;;;;;;;;;;;23.70;35.70;;;;;;5032467;28;19920;-60
2022/04/08 07:24:43;;;;;;;;;;;23.80;35.60;;;;;;5040605;28;19947;-60
2022/04/08 07:27:09;;;;;;;;;;;23.80;35.50;;;;;;5083187;28;20306;-60
2022/04/08 07:29:35;;;;;;;;;;;23.80;35.40;;;;;;5073161;28;20304;-59
2022/04/08 07:32:00;;;;;;;;;;;23.80;35.30;;;;;;5078757;28;19982;-60
2022/04/08 07:34:26;;;;;;;;;;;23.80;35.20;;;;;;5058510;28;19912;-60
2022/04/08 07:36:51;;;;;;;;;;;23.90;35.30;;;;;;5064230;28;20011;-60
2022/04/08 07:39:17;;;;;;;;;;;24.00;35.30;;;;;;5046562;28;19916;-61
2022/04/08 07:41:42;;;;;;;;;;;24.00;35.10;;;;;;5052564;28;20395;-61
2022/04/08 07:44:08;;;;;;;;;;;24.10;35.10;;;;;;5084752;28;19985;-60
2022/04/08 07:46:33;;;;;;;;;;;24.10;35.10;;;;;;5076972;28;19920;-60
2022/04/08 07:48:59;;;;;;;;;;;24.10;35.10;;;;;;5085438;28;19959;-60
2022/04/08 07:51:24;;;;;;;;;;;24.10;35.00;;;;;;5082638;28;20390;-60
2022/04/08 07:53:49;;;;;;;;;;;24.10;34.90;;;;;;5083779;28;19921;-60
2022/04/08 07:56:15;;;;;;;;;;;24.00;34.90;;;;;;5058520;28;20296;-61
2022/04/08 07:58:40;;;;;;;;;;;24.00;35.00;;;;;;5065899;28;19959;-61
2022/04/08 08:01:06;;;;;;;;;;;23.90;35.00;;;;;;5078015;28;19912;-61
2022/04/08 08:03:34;;;;;;;;;;;23.90;35.10;;;;;;5066777;28;19924;-61
2022/04/08 08:06:01;;;;;;;;;;;23.90;35.20;;;;;;5061289;28;20403;-61
2022/04/08 08:08:26;;;;;;;;;;;23.90;35.10;;;;;;5053099;28;20035;-59
2022/04/08 08:10:52;;;;;;;;;;;23.90;35.10;;;;;;5071891;28;20027;-60
2022/04/08 08:13:17;;;;;;;;;;;23.90;35.00;;;;;;5079886;28;19919;-60
2022/04/08 08:15:43;;;;;;;;;;;23.90;35.00;;;;;;5054635;28;19913;-60
2022/04/08 08:18:08;;;;;;;;;;;24.00;35.10;;;;;;5064341;28;19932;-60
2022/04/08 08:20:34;;;;;;;;;;;24.00;35.00;;;;;;5079361;28;19917;-60
2022/04/08 08:23:00;;;;;;;;;;;24.00;34.90;;;;;;5093236;28;19932;-61
2022/04/08 08:25:25;;;;;;;;;;;24.00;34.90;;;;;;5074402;28;20021;-61
2022/04/08 08:27:55;;;;;;;;;;;24.00;34.90;;;;;;5059136;28;20341;-61
2022/04/08 08:30:21;;;;;;;;;;;24.00;34.80;;;;;;5050108;28;20002;-60
2022/04/08 08:32:47;;;;;;;;;;;24.00;34.80;;;;;;5042060;28;19958;-60
2022/04/08 08:35:13;;;;;;;;;;;24.00;34.80;;;;;;5070909;28;19920;-59
2022/04/08 08:37:38;;;;;;;;;;;24.10;34.90;;;;;;5075150;28;19915;-60
2022/04/08 08:40:04;;;;;;;;;;;24.10;34.90;;;;;;5057472;28;20421;-60
2022/04/08 08:42:29;;;;;;;;;;;24.10;34.80;;;;;;5093050;28;19942;-59
2022/04/08 08:44:55;;;;;;;;;;;24.10;34.80;;;;;;5063064;28;19934;-59
2022/04/08 08:47:20;;;;;;;;;;;24.10;34.80;;;;;;5078877;28;19958;-59
2022/04/08 08:49:52;;;;;;;;;;;24.00;34.80;;;;;;5056719;28;20023;-59
2022/04/08 08:52:18;;;;;;;;;;;24.00;34.90;;;;;;5068369;28;19954;-60
2022/04/08 08:54:44;;;;;;;;;;;23.90;35.10;;;;;;5073207;28;19908;-60
2022/04/08 08:57:10;;;;;;;;;;;23.80;35.20;;;;;;5074705;28;20349;-59
2022/04/08 08:59:36;;;;;;;;;;;23.70;35.40;;;;;;5067196;28;19916;-59
2022/04/08 09:02:02;;;;;;;;;;;23.50;35.40;;;;;;5066523;28;19913;-60
2022/04/08 09:04:28;;;;;;;;;;;23.40;35.70;;;;;;5041455;28;19913;-60
2022/04/08 09:06:53;;;;;;;;;;;23.30;36.00;;;;;;5057095;28;20445;-60
2022/04/08 09:09:30;;;;;;;;;;;23.20;36.10;;;;;;5045651;28;20325;-60
2022/04/08 09:11:56;;;;;;;;;;;23.10;36.00;;;;;;5040889;28;20648;-59
2022/04/08 09:14:30;;;;;;;;;;;23.10;36.00;;;;;;5061272;28;19913;-60
2022/04/08 09:16:59;;;;;;;;;;;23.00;36.10;;;;;;5072725;28;20039;-60
2022/04/08 09:19:25;;;;;;;;;;;22.90;36.30;;;;;;5062943;28;19912;-61
2022/04/08 09:21:51;;;;;;;;;;;22.80;36.40;;;;;;5052158;28;19927;-59
2022/04/08 09:24:17;;;;;;;;;;;22.80;36.30;;;;;;5050408;28;20288;-59
2022/04/08 09:26:42;;;;;;;;;;;22.80;36.50;;;;;;5080661;28;19913;-61
2022/04/08 09:29:08;;;;;;;;;;;22.70;36.50;;;;;;5060106;28;19912;-59
2022/04/08 09:31:33;;;;;;;;;;;22.80;36.60;;;;;;5043252;28;19927;-60
2022/04/08 09:33:58;;;;;;;;;;;22.80;36.50;;;;;;5050725;28;20003;-61
2022/04/08 09:36:27;;;;;;;;;;;22.90;36.50;;;;;;5087702;28;19920;-61
2022/04/08 09:38:52;;;;;;;;;;;23.00;36.30;;;;;;5049896;28;19998;-60
2022/04/08 09:41:18;;;;;;;;;;;23.10;36.00;;;;;;5068059;28;19912;-62
2022/04/08 09:43:43;;;;;;;;;;;23.20;36.10;;;;;;5057040;28;19916;-61
2022/04/08 09:46:15;;;;;;;;;;;23.40;35.90;;;;;;5081550;28;19919;-61
2022/04/08 09:48:41;;;;;;;;;;;23.50;35.60;;;;;;5091089;28;19908;-59
2022/04/08 09:51:09;;;;;;;;;;;23.60;35.40;;;;;;5057568;28;20403;-60
2022/04/08 09:53:36;;;;;;;;;;;23.70;35.30;;;;;;5047914;28;19916;-61
2022/04/08 09:56:01;;;;;;;;;;;23.80;35.30;;;;;;5074487;28;19951;-61
2022/04/08 09:58:27;;;;;;;;;;;23.90;35.20;;;;;;5071659;28;19943;-61
2022/04/08 10:00:52;;;;;;;;;;;24.00;35.10;;;;;;5091462;28;19908;-60
2022/04/08 10:03:18;;;;;;;;;;;23.90;35.00;;;;;;5073118;28;19944;-61
2022/04/08 10:05:43;;;;;;;;;;;23.90;34.80;;;;;;5071813;28;20391;-61
2022/04/08 10:08:09;;;;;;;;;;;23.90;34.80;;;;;;5047163;28;20372;-61
2022/04/08 10:10:42;;;;;;;;;;;23.80;34.90;;;;;;5057570;28;19924;-61
2022/04/08 10:13:19;;;;;;;;;;;23.80;35.10;;;;;;5057649;28;19916;-61
2022/04/08 10:16:04;;;;;;;;;;;23.70;35.10;;;;;;5039503;28;19921;-61
2022/04/08 10:18:37;;;;;;;;;;;23.60;35.20;;;;;;5054622;28;19920;-61
2022/04/08 10:21:02;;;;;;;;;;;23.50;35.30;;;;;;5045151;28;19924;-61
2022/04/08 10:23:37;;;;;;;;;;;23.30;35.40;;;;;;5058812;28;19924;-61
2022/04/08 10:26:04;;;;;;;;;;;23.30;35.50;;;;;;5049094;28;20441;-61
2022/04/08 10:28:36;;;;;;;;;;;23.20;35.40;;;;;;5046403;28;19943;-61
2022/04/08 10:31:02;;;;;;;;;;;23.20;35.40;;;;;;5042732;28;19939;-61
2022/04/08 10:33:28;;;;;;;;;;;23.10;35.40;;;;;;5059428;28;19913;-61
2022/04/08 10:36:00;;;;;;;;;;;23.10;35.40;;;;;;5063143;28;19919;-61
2022/04/08 10:38:44;;;;;;;;;;;23.10;35.30;;;;;;5042248;28;20028;-61
2022/04/08 10:41:10;;;;;;;;;;;23.10;35.40;;;;;;5059117;28;19947;-59
2022/04/08 10:43:43;;;;;;;;;;;23.00;35.60;;;;;;5048373;28;19923;-61
2022/04/08 10:46:09;;;;;;;;;;;22.90;35.60;;;;;;5064372;28;19920;-60
2022/04/08 10:48:34;;;;;;;;;;;22.90;35.70;;;;;;5079614;28;19927;-61
2022/04/08 10:51:08;;;;;;;;;;;22.80;35.70;;;;;;5070751;28;19924;-62
2022/04/08 10:53:34;;;;;;;;;;;23.00;35.60;;;;;;5070818;28;19916;-62
2022/04/08 10:56:13;;;;;;;;;;;22.90;35.70;;;;;;5074274;28;19943;-61
2022/04/08 10:58:39;;;;;;;;;;;23.00;36.30;;;;;;5075010;28;19912;-62
2022/04/08 11:01:17;;;;;;;;;;;23.00;35.60;;;;;;5087498;28;20368;-62
2022/04/08 11:03:46;;;;;;;;;;;23.10;35.50;;;;;;5053751;28;19919;-61
2022/04/08 11:06:15;;;;;;;;;;;23.10;35.50;;;;;;5038903;28;20005;-58
2022/04/08 11:08:40;;;;;;;;;;;23.00;35.30;;;;;;5037173;28;20006;-61
2022/04/08 11:11:07;;;;;;;;;;;23.00;35.60;;;;;;5070012;28;20390;-60
2022/04/08 11:13:32;;;;;;;;;;;23.00;35.50;;;;;;5073711;28;20006;-60
2022/04/08 11:15:58;;;;;;;;;;;23.00;35.40;;;;;;5055634;28;20007;-60
2022/04/08 11:18:26;;;;;;;;;;;23.00;35.50;;;;;;5074554;28;19916;-60
2022/04/08 11:20:51;;;;;;;;;;;23.00;35.80;;;;;;5067362;28;20291;-60
2022/04/08 11:23:26;;;;;;;;;;;23.00;35.80;;;;;;5048220;28;19922;-60
2022/04/08 11:25:52;;;;;;;;;;;23.00;35.70;;;;;;5032095;28;19913;-60
2022/04/08 11:28:20;;;;;;;;;;;22.90;35.80;;;;;;5032115;28;19916;-60
2022/04/08 11:30:45;;;;;;;;;;;22.90;35.90;;;;;;5035688;28;20384;-60
2022/04/08 11:33:13;;;;;;;;;;;22.90;36.00;;;;;;5054424;28;19909;-60
2022/04/08 11:35:39;;;;;;;;;;;22.80;36.20;;;;;;5051963;28;20036;-60
2022/04/08 11:38:22;;;;;;;;;;;22.80;36.40;;;;;;5047109;28;20424;-60
2022/04/08 11:40:48;;;;;;;;;;;22.90;36.40;;;;;;5033861;28;19913;-60
2022/04/08 11:43:16;;;;;;;;;;;23.00;36.50;;;;;;5049920;28;20289;-61
2022/04/08 11:45:41;;;;;;;;;;;23.20;36.70;;;;;;5034627;28;19916;-61
2022/04/08 11:48:07;;;;;;;;;;;23.40;36.70;;;;;;5062044;28;19912;-64
2022/04/08 11:50:37;;;;;;;;;;;23.50;36.40;;;;;;5031041;28;20288;-61
2022/04/08 11:53:02;;;;;;;;;;;23.60;36.40;;;;;;5045548;28;20003;-61
2022/04/08 11:55:28;;;;;;;;;;;23.70;36.50;;;;;;5029041;28;19996;-61
2022/04/08 11:57:54;;;;;;;;;;;23.70;36.30;;;;;;5029399;28;20318;-61
2022/04/08 12:00:26;;;;;;;;;;;23.70;36.20;;;;;;5058236;28;19913;-61
2022/04/08 12:02:51;;;;;;;;;;;23.70;36.10;;;;;;5055673;28;20295;-61
2022/04/08 12:05:24;;;;;;;;;;;23.70;36.10;;;;;;5040693;28;19960;-61
2022/04/08 12:07:54;;;;;;;;;;;23.60;36.20;;;;;;5056158;28;19924;-61
2022/04/08 12:10:22;;;;;;;;;;;23.60;36.10;;;;;;5049554;28;19919;-61
2022/04/08 12:12:48;;;;;;;;;;;23.50;36.00;;;;;;5035722;28;19909;-61
2022/04/08 12:15:14;;;;;;;;;;;23.50;36.10;;;;;;5039595;28;19920;-61
2022/04/08 12:17:40;;;;;;;;;;;23.40;36.10;;;;;;5039141;28;20019;-61
2022/04/08 12:20:06;;;;;;;;;;;23.40;36.20;;;;;;5023038;28;20327;-61
2022/04/08 12:22:32;;;;;;;;;;;23.30;36.20;;;;;;5050160;28;19974;-61
2022/04/08 12:24:57;;;;;;;;;;;23.30;36.00;;;;;;5057697;28;19928;-61
2022/04/08 12:27:24;;;;;;;;;;;23.30;36.20;;;;;;5027316;28;20067;-60
2022/04/08 12:29:58;;;;;;;;;;;23.40;36.90;;;;;;5060871;28;19916;-60
2022/04/08 12:32:24;;;;;;;;;;;23.50;36.40;;;;;;5058842;28;20035;-62
2022/04/08 12:34:50;;;;;;;;;;;23.70;36.10;;;;;;5040187;28;20015;-61
2022/04/08 12:37:16;;;;;;;;;;;23.80;35.70;;;;;;5024068;28;19927;-60
2022/04/08 12:39:41;;;;;;;;;;;23.90;35.40;;;;;;5041554;28;20330;-61
2022/04/08 12:42:07;;;;;;;;;;;24.00;35.30;;;;;;5045349;28;20412;-61
2022/04/08 12:44:32;;;;;;;;;;;24.00;35.10;;;;;;5061007;28;20351;-61
2022/04/08 12:46:58;;;;;;;;;;;24.10;35.00;;;;;;5043532;28;19962;-61
2022/04/08 12:49:23;;;;;;;;;;;24.10;34.80;;;;;;5061202;28;19919;-61
2022/04/08 12:51:49;;;;;;;;;;;24.20;34.80;;;;;;5041107;28;19925;-61
2022/04/08 12:54:14;;;;;;;;;;;24.30;34.80;;;;;;5043667;28;20015;-61
2022/04/08 12:56:40;;;;;;;;;;;24.30;34.60;;;;;;5045258;28;19943;-61
2022/04/08 12:59:05;;;;;;;;;;;24.40;34.60;;;;;;5056219;28;19921;-62
2022/04/08 13:01:31;;;;;;;;;;;24.50;34.70;;;;;;5060639;28;19916;-61
2022/04/08 13:03:56;;;;;;;;;;;24.50;34.60;;;;;;5058367;28;19912;-61
2022/04/08 13:06:22;;;;;;;;;;;24.60;34.70;;;;;;5057891;28;20000;-60
2022/04/08 13:08:47;;;;;;;;;;;24.70;34.80;;;;;;5043521;28;19963;-61
2022/04/08 13:11:13;;;;;;;;;;;24.70;34.70;;;;;;5060836;28;19948;-61
2022/04/08 13:13:39;;;;;;;;;;;24.60;34.70;;;;;;5045639;28;19921;-61
2022/04/08 13:16:04;;;;;;;;;;;24.60;34.80;;;;;;5060242;28;20007;-61
2022/04/08 13:18:30;;;;;;;;;;;24.50;34.80;;;;;;5043635;28;19921;-61
2022/04/08 13:20:55;;;;;;;;;;;24.40;34.70;;;;;;5071094;28;19919;-61
2022/04/08 13:23:20;;;;;;;;;;;24.30;34.70;;;;;;5048281;28;19920;-61
2022/04/08 13:25:46;;;;;;;;;;;24.30;35.00;;;;;;5069366;28;20291;-61
2022/04/08 13:28:13;;;;;;;;;;;24.20;35.20;;;;;;5054918;28;19955;-61
2022/04/08 13:30:39;;;;;;;;;;;24.20;35.40;;;;;;5069851;28;20376;-61
2022/04/08 13:33:05;;;;;;;;;;;24.10;35.50;;;;;;5092352;28;19966;-61
2022/04/08 13:35:30;;;;;;;;;;;24.20;36.40;;;;;;5063274;28;19920;-61
2022/04/08 13:37:56;;;;;;;;;;;24.30;35.60;;;;;;5050186;28;19916;-61
2022/04/08 13:40:23;;;;;;;;;;;24.30;35.30;;;;;;5052949;28;20003;-61
2022/04/08 13:42:48;;;;;;;;;;;24.40;35.40;;;;;;5064357;28;19912;-62
2022/04/08 13:45:14;;;;;;;;;;;24.30;35.50;;;;;;5091943;28;19957;-63
2022/04/08 13:47:39;;;;;;;;;;;24.30;35.60;;;;;;5091865;28;19912;-62
2022/04/08 13:50:05;;;;;;;;;;;24.20;35.50;;;;;;5073231;28;19912;-61
2022/04/08 13:52:31;;;;;;;;;;;24.20;35.50;;;;;;5071055;28;20034;-61
2022/04/08 13:54:57;;;;;;;;;;;24.20;35.50;;;;;;5088139;28;19916;-61
2022/04/08 13:57:22;;;;;;;;;;;24.30;35.60;;;;;;5075789;28;20276;-61
2022/04/08 13:59:47;;;;;;;;;;;24.30;35.40;;;;;;5070123;28;19908;-61
2022/04/08 14:02:13;;;;;;;;;;;24.40;35.40;;;;;;5091620;28;19913;-61
2022/04/08 14:04:39;;;;;;;;;;;24.40;35.30;;;;;;5061395;28;19921;-61
2022/04/08 14:07:05;;;;;;;;;;;24.40;35.40;;;;;;5044905;28;19916;-61
2022/04/08 14:09:30;;;;;;;;;;;24.40;35.40;;;;;;5057070;28;19964;-61
2022/04/08 14:11:56;;;;;;;;;;;24.40;35.30;;;;;;5060805;28;19920;-61